createdAt,value
2017-04-06T08:21:15.632Z,22.73
2017-04-06T08:22:16.681Z,22.16
2017-04-06T08:23:17.915Z,22.10
2017-04-06T08:24:19.043Z,22.03
2017-04-06T08:25:20.382Z,22.10
2017-04-06T08:30:45.528Z,22.01
2017-04-06T08:31:46.178Z,22.04
2017-04-06T08:32:48.324Z,21.94
2017-04-06T08:33:48.958Z,21.99
2017-04-06T08:34:49.620Z,21.91
2017-04-06T08:35:50.273Z,21.96
2017-04-06T08:36:50.944Z,21.94
2017-04-06T08:37:51.664Z,21.78
2017-04-06T08:38:52.451Z,21.70
2017-04-06T08:39:53.214Z,21.77
2017-04-06T08:40:53.917Z,21.84
2017-04-06T08:41:54.642Z,21.81
2017-04-06T08:42:55.378Z,21.87
2017-04-06T08:43:56.212Z,22.01
2017-04-06T08:45:20.904Z,22.31
2017-04-06T08:46:21.538Z,21.92
2017-04-06T08:47:22.251Z,20.88
2017-04-06T08:48:22.906Z,20.74
2017-04-06T08:49:23.731Z,20.26
2017-04-06T08:50:24.382Z,20.10
2017-04-06T08:51:25.232Z,20.26
2017-04-06T08:52:25.965Z,20.80
2017-04-06T08:53:26.610Z,20.92
2017-04-06T08:54:27.263Z,21.08
2017-04-06T08:55:27.936Z,21.17
2017-04-06T08:56:28.600Z,21.17
2017-04-06T08:57:29.285Z,21.22
2017-04-06T08:58:30.009Z,21.28
2017-04-06T08:59:31.096Z,21.33
2017-04-06T09:00:32.494Z,21.50
2017-04-06T09:01:33.475Z,21.43
2017-04-06T09:02:34.300Z,21.44
2017-04-06T09:03:34.966Z,21.41
2017-04-06T09:04:35.613Z,21.56
2017-04-06T09:05:36.271Z,21.38
2017-04-06T09:06:36.934Z,21.53
2017-04-06T09:07:37.621Z,21.53
2017-04-06T09:08:38.452Z,21.54
2017-04-06T09:09:39.371Z,21.63
2017-04-06T09:10:40.293Z,21.68
2017-04-06T09:11:40.928Z,21.68
2017-04-06T09:12:41.591Z,21.75
2017-04-06T09:13:42.258Z,21.62
2017-04-06T09:14:42.895Z,21.83
2017-04-06T09:15:43.595Z,21.81
2017-04-06T09:16:44.308Z,21.63
2017-04-06T09:17:44.955Z,21.80
2017-04-06T09:18:45.600Z,21.96
2017-04-06T09:19:46.271Z,21.85
2017-04-06T09:20:46.918Z,22.01
2017-04-06T09:21:47.597Z,22.04
2017-04-06T09:22:48.382Z,22.07
2017-04-06T09:23:49.023Z,22.08
2017-04-06T09:24:49.885Z,22.01
2017-04-06T09:25:50.773Z,21.94
2017-04-06T09:26:51.444Z,21.91
2017-04-06T09:27:52.447Z,22.00
2017-04-06T09:28:53.145Z,22.06
2017-04-06T09:29:53.810Z,21.84
2017-04-06T09:30:54.540Z,21.89
2017-04-06T09:31:55.587Z,21.92
2017-04-06T09:32:56.320Z,21.80
2017-04-06T09:33:57.027Z,21.80
2017-04-06T09:34:57.882Z,21.91
2017-04-06T09:35:58.606Z,21.78
2017-04-06T09:36:59.276Z,21.96
2017-04-06T09:37:59.940Z,21.81
2017-04-06T09:39:00.649Z,21.96
2017-04-06T09:40:01.372Z,21.92
2017-04-06T09:41:02.051Z,21.87
2017-04-06T09:42:02.707Z,21.91
2017-04-06T09:43:03.359Z,21.94
2017-04-06T09:44:04.018Z,21.91
2017-04-06T09:45:04.703Z,21.96
2017-04-06T09:46:05.354Z,21.97
2017-04-06T09:47:06.013Z,21.89
2017-04-06T09:48:06.674Z,22.00
2017-04-06T09:49:07.336Z,22.10
2017-04-06T09:50:08.013Z,21.99
2017-04-06T09:51:08.653Z,22.03
2017-04-06T09:52:09.314Z,21.96
2017-04-06T09:53:10.018Z,21.94
2017-04-06T09:54:10.705Z,22.04
2017-04-06T09:55:11.366Z,21.97
2017-04-06T09:56:12.038Z,22.03
2017-04-06T09:57:12.700Z,21.92
2017-04-06T09:58:13.356Z,21.91
2017-04-06T09:59:14.075Z,21.92
2017-04-06T10:00:14.746Z,22.00
2017-04-06T10:01:15.457Z,22.06
2017-04-06T10:02:16.115Z,22.01
2017-04-06T10:03:16.775Z,21.92
2017-04-06T10:04:17.436Z,22.07
2017-04-06T10:05:18.125Z,21.99
2017-04-06T10:06:18.925Z,22.14
2017-04-06T10:07:19.642Z,22.25
2017-04-06T10:08:20.284Z,22.19
2017-04-06T10:09:20.941Z,22.19
2017-04-06T10:10:21.643Z,22.15
2017-04-06T10:11:22.333Z,22.19
2017-04-06T10:12:23.106Z,22.26
2017-04-06T10:13:23.825Z,22.26
2017-04-06T10:14:24.572Z,22.38
2017-04-06T10:15:25.216Z,22.40
2017-04-06T10:16:26.115Z,22.40
2017-04-06T10:17:26.853Z,22.34
2017-04-06T10:18:27.553Z,22.30
2017-04-06T10:19:28.567Z,22.38
2017-04-06T10:20:29.304Z,22.37
2017-04-06T10:21:29.974Z,22.40
2017-04-06T10:22:30.689Z,22.16
2017-04-06T10:23:31.372Z,22.22
2017-04-06T10:24:32.176Z,22.15
2017-04-06T10:25:32.846Z,22.30
2017-04-06T10:26:33.502Z,22.36
2017-04-06T10:27:34.156Z,22.31
2017-04-06T10:28:34.846Z,22.33
2017-04-06T10:29:35.571Z,22.19
2017-04-06T10:30:36.231Z,22.31
2017-04-06T10:31:37.035Z,22.25
2017-04-06T10:32:37.821Z,22.22
2017-04-06T10:33:38.767Z,22.19
2017-04-06T10:34:39.627Z,22.22
2017-04-06T10:35:40.321Z,22.22
2017-04-06T10:36:41.402Z,22.25
2017-04-06T10:37:42.040Z,22.34
2017-04-06T10:38:42.798Z,22.25
2017-04-06T10:39:43.435Z,22.41
2017-04-06T10:40:44.095Z,22.28
2017-04-06T10:41:44.784Z,22.30
2017-04-06T10:42:45.461Z,22.28
2017-04-06T10:43:46.120Z,22.38
2017-04-06T10:44:46.764Z,22.19
2017-04-06T10:45:47.476Z,22.15
2017-04-06T10:46:48.114Z,22.15
2017-04-06T10:47:48.774Z,22.08
2017-04-06T10:48:49.459Z,22.10
2017-04-06T10:49:50.486Z,22.12
2017-04-06T10:50:51.146Z,22.04
2017-04-06T10:51:51.818Z,22.00
2017-04-06T10:52:52.463Z,22.10
2017-04-06T10:53:53.598Z,22.06
2017-04-06T10:54:54.294Z,22.03
2017-04-06T10:55:55.629Z,22.04
2017-04-06T10:56:56.405Z,22.06
2017-04-06T10:57:57.042Z,22.10
2017-04-06T10:58:57.702Z,22.10
2017-04-06T10:59:58.352Z,21.99
2017-04-06T11:00:59.036Z,22.06
2017-04-06T11:01:59.678Z,22.03
2017-04-06T11:03:00.338Z,22.01
2017-04-06T11:04:01.011Z,22.06
2017-04-06T11:05:01.914Z,22.00
2017-04-06T11:06:02.559Z,21.91
2017-04-06T11:07:03.218Z,21.94
2017-04-06T11:08:03.878Z,21.97
2017-04-06T11:09:04.542Z,21.94
2017-04-06T11:10:05.205Z,21.91
2017-04-06T11:11:05.849Z,21.92
2017-04-06T11:12:06.503Z,21.94
2017-04-06T11:13:07.207Z,21.87
2017-04-06T11:14:07.852Z,21.92
2017-04-06T11:15:08.515Z,21.91
2017-04-06T11:16:09.178Z,21.89
2017-04-06T11:17:09.840Z,21.91
2017-04-06T11:18:10.508Z,22.01
2017-04-06T11:19:11.177Z,22.04
2017-04-06T11:20:11.843Z,22.00
2017-04-06T11:21:12.498Z,21.99
2017-04-06T11:22:13.162Z,21.92
2017-04-06T11:23:13.830Z,21.91
2017-04-06T11:24:14.488Z,21.89
2017-04-06T11:25:15.154Z,21.91
2017-04-06T11:26:15.800Z,21.84
2017-04-06T11:27:16.452Z,21.96
2017-04-06T11:28:17.113Z,22.03
2017-04-06T11:29:17.762Z,21.96
2017-04-06T11:30:18.421Z,21.99
2017-04-06T11:31:19.088Z,22.04
2017-04-06T11:32:19.736Z,22.06
2017-04-06T11:33:20.397Z,22.04
2017-04-06T11:34:21.056Z,21.94
2017-04-06T11:35:21.818Z,21.94
2017-04-06T11:36:22.486Z,22.01
2017-04-06T11:37:23.129Z,22.01
2017-04-06T11:38:23.797Z,22.04
2017-04-06T11:39:24.449Z,22.04
2017-04-06T11:40:25.209Z,21.94
2017-04-06T11:41:25.869Z,21.94
2017-04-06T11:42:26.775Z,21.78
2017-04-06T11:43:27.410Z,21.92
2017-04-06T11:44:28.070Z,21.89
2017-04-06T11:45:28.735Z,21.91
2017-04-06T11:46:29.386Z,21.92
2017-04-06T11:47:30.090Z,21.92
2017-04-06T11:48:30.729Z,21.91
2017-04-06T11:49:31.391Z,21.94
2017-04-06T11:50:32.057Z,21.89
2017-04-06T11:51:32.697Z,21.94
2017-04-06T11:52:33.359Z,21.99
2017-04-06T11:53:34.023Z,21.96
2017-04-06T11:54:34.690Z,21.83
2017-04-06T11:55:35.325Z,21.89
2017-04-06T11:56:35.986Z,21.87
2017-04-06T11:57:36.649Z,21.80
2017-04-06T11:58:37.300Z,21.87
2017-04-06T11:59:37.965Z,21.87
2017-04-06T12:00:38.622Z,21.89
2017-04-06T12:01:39.276Z,21.89
2017-04-06T12:02:39.940Z,21.83
2017-04-06T12:03:40.639Z,21.91
2017-04-06T12:04:41.299Z,21.92
2017-04-06T12:05:41.959Z,21.77
2017-04-06T12:06:42.619Z,21.89
2017-04-06T12:07:43.279Z,21.81
2017-04-06T12:08:43.939Z,21.81
2017-04-06T12:09:44.599Z,21.74
2017-04-06T12:10:45.260Z,21.78
2017-04-06T12:11:45.921Z,21.85
2017-04-06T12:12:46.574Z,21.77
2017-04-06T12:13:47.234Z,21.91
2017-04-06T12:14:47.894Z,21.87
2017-04-06T12:15:48.556Z,21.92
2017-04-06T12:16:49.221Z,21.92
2017-04-06T12:17:50.159Z,21.97
2017-04-06T12:18:50.823Z,21.92
2017-04-06T12:19:51.474Z,21.74
2017-04-06T12:20:52.122Z,21.81
2017-04-06T12:21:52.772Z,21.69
2017-04-06T12:22:53.425Z,21.74
2017-04-06T12:23:54.087Z,21.63
2017-04-06T12:24:54.748Z,21.63
2017-04-06T12:25:55.450Z,21.54
2017-04-06T12:26:56.114Z,21.53
2017-04-06T12:27:56.757Z,21.69
2017-04-06T12:28:57.419Z,21.65
2017-04-06T12:29:58.083Z,21.77
2017-04-06T12:30:58.735Z,21.78
2017-04-06T12:31:59.410Z,21.81
2017-04-06T12:33:00.053Z,21.80
2017-04-06T12:34:00.713Z,21.78
2017-04-06T12:35:01.384Z,21.84
2017-04-06T12:36:02.051Z,21.83
2017-04-06T12:37:02.760Z,21.77
2017-04-06T12:38:04.233Z,21.70
2017-04-06T12:39:04.913Z,21.78
2017-04-06T12:40:05.593Z,21.60
2017-04-06T12:41:06.538Z,21.60
2017-04-06T12:42:07.693Z,21.50
2017-04-06T12:43:08.351Z,21.56
2017-04-06T12:44:09.478Z,21.56
2017-04-06T12:45:10.142Z,21.53
2017-04-06T12:46:10.878Z,21.53
2017-04-06T12:47:11.690Z,21.63
2017-04-06T12:48:12.378Z,21.62
2017-04-06T12:49:13.034Z,21.68
2017-04-06T12:50:13.704Z,21.68
2017-04-06T12:51:14.639Z,21.62
2017-04-06T12:52:15.344Z,21.60
2017-04-06T12:53:15.997Z,21.63
2017-04-06T12:54:16.666Z,21.72
2017-04-06T12:55:17.354Z,21.60
2017-04-06T12:56:18.364Z,21.65
2017-04-06T12:57:19.049Z,21.59
2017-04-06T12:58:19.685Z,21.60
2017-04-06T12:59:20.346Z,21.53
2017-04-06T13:00:21.014Z,21.60
2017-04-06T13:01:21.683Z,21.63
2017-04-06T13:02:22.320Z,21.53
2017-04-06T13:03:22.979Z,21.58
2017-04-06T13:04:23.756Z,21.56
2017-04-06T13:05:24.414Z,21.53
2017-04-06T13:06:25.087Z,21.59
2017-04-06T13:07:25.736Z,21.47
2017-04-06T13:08:26.398Z,21.48
2017-04-06T13:09:27.058Z,21.50
2017-04-06T13:10:27.731Z,21.54
2017-04-06T13:11:28.424Z,21.48
2017-04-06T13:12:29.062Z,21.54
2017-04-06T13:13:29.730Z,21.41
2017-04-06T13:14:30.420Z,21.54
2017-04-06T13:15:31.146Z,21.65
2017-04-06T13:16:32.303Z,21.56
2017-04-06T13:17:33.253Z,21.59
2017-04-06T13:18:33.937Z,21.63
2017-04-06T13:19:34.579Z,21.62
2017-04-06T13:20:35.256Z,21.59
2017-04-06T13:21:36.165Z,21.60
2017-04-06T13:22:36.825Z,21.63
2017-04-06T13:23:37.486Z,21.68
2017-04-06T13:24:38.156Z,21.63
2017-04-06T13:25:38.800Z,21.63
2017-04-06T13:26:39.460Z,21.63
2017-04-06T13:27:40.120Z,21.54
2017-04-06T13:28:40.777Z,21.62
2017-04-06T13:29:41.439Z,21.66
2017-04-06T13:30:42.139Z,21.63
2017-04-06T13:31:42.787Z,21.65
2017-04-06T13:32:43.447Z,21.63
2017-04-06T13:33:44.107Z,21.54
2017-04-06T13:34:44.769Z,21.59
2017-04-06T13:35:45.435Z,21.54
2017-04-06T13:36:46.179Z,21.65
2017-04-06T13:37:46.838Z,21.69
2017-04-06T13:38:47.499Z,21.66
2017-04-06T13:39:48.162Z,21.53
2017-04-06T13:40:48.821Z,21.51
2017-04-06T13:41:49.477Z,21.56
2017-04-06T13:42:50.136Z,21.48
2017-04-06T13:43:50.796Z,21.43
2017-04-06T13:44:51.457Z,21.44
2017-04-06T13:45:52.117Z,21.40
2017-04-06T13:46:52.773Z,21.43
2017-04-06T13:47:53.626Z,21.44
2017-04-06T13:48:54.284Z,21.33
2017-04-06T13:49:54.999Z,21.40
2017-04-06T13:50:55.688Z,21.32
2017-04-06T13:51:56.347Z,21.35
2017-04-06T13:52:57.006Z,21.30
2017-04-06T13:53:57.667Z,21.33
2017-04-06T13:54:58.335Z,21.26
2017-04-06T13:55:58.994Z,21.22
2017-04-06T13:56:59.688Z,21.28
2017-04-06T13:58:00.353Z,21.22
2017-04-06T13:59:01.026Z,21.25
2017-04-06T14:00:01.679Z,21.25
2017-04-06T14:01:02.337Z,21.25
2017-04-06T14:02:03.096Z,21.22
2017-04-06T14:03:03.758Z,21.28
2017-04-06T14:04:04.428Z,21.26
2017-04-06T14:05:05.072Z,21.29
2017-04-06T14:06:05.731Z,21.37
2017-04-06T14:07:06.390Z,21.30
2017-04-06T14:08:07.050Z,21.33
2017-04-06T14:09:07.709Z,21.40
2017-04-06T14:10:08.368Z,21.29
2017-04-06T14:11:09.029Z,21.41
2017-04-06T14:12:09.688Z,21.30
2017-04-06T14:13:10.637Z,21.45
2017-04-06T14:14:11.273Z,21.30
2017-04-06T14:15:11.936Z,21.50
2017-04-06T14:16:12.590Z,21.50
2017-04-06T14:17:13.249Z,21.41
2017-04-06T14:18:13.919Z,21.41
2017-04-06T14:19:15.272Z,21.40
2017-04-06T14:20:16.406Z,21.40
2017-04-06T14:21:17.664Z,21.41
2017-04-06T14:22:18.924Z,21.45
2017-04-06T14:23:19.827Z,21.32
2017-04-06T14:24:20.463Z,21.47
2017-04-06T14:25:21.122Z,21.38
2017-04-06T14:26:21.782Z,21.41
2017-04-06T14:27:22.547Z,21.30
2017-04-06T14:28:23.191Z,21.37
2017-04-06T14:29:23.844Z,21.35
2017-04-06T14:30:24.505Z,21.32
2017-04-06T14:31:25.164Z,21.32
2017-04-06T14:32:25.824Z,21.45
2017-04-06T14:33:26.583Z,21.41
2017-04-06T14:34:27.243Z,21.40
2017-04-06T14:35:27.943Z,21.44
2017-04-06T14:36:28.602Z,21.44
2017-04-06T14:37:29.262Z,21.29
2017-04-06T14:38:29.913Z,21.33
2017-04-06T14:39:30.575Z,21.30
2017-04-06T14:40:31.234Z,21.32
2017-04-06T14:41:31.893Z,21.32
2017-04-06T14:42:32.553Z,21.25
2017-04-06T14:43:33.211Z,21.30
2017-04-06T14:44:33.872Z,21.35
2017-04-06T14:45:34.532Z,21.37
2017-04-06T14:46:35.195Z,21.35
2017-04-06T14:47:35.842Z,21.38
2017-04-06T14:48:36.652Z,21.33
2017-04-06T14:49:37.313Z,21.35
2017-04-06T14:50:37.973Z,21.23
2017-04-06T14:51:38.632Z,21.19
2017-04-06T14:52:39.292Z,21.25
2017-04-06T14:53:39.953Z,21.22
2017-04-06T14:54:40.611Z,21.32
2017-04-06T14:55:41.269Z,21.20
2017-04-06T14:56:41.930Z,21.25
2017-04-06T14:57:42.589Z,21.23
2017-04-06T14:58:43.250Z,21.23
2017-04-06T14:59:43.911Z,21.23
2017-04-06T15:00:44.575Z,21.25
2017-04-06T15:01:45.231Z,21.25
2017-04-06T15:02:45.893Z,21.25
2017-04-06T15:03:46.550Z,21.20
2017-04-06T15:04:47.211Z,21.33
2017-04-06T15:05:48.086Z,21.22
2017-04-06T15:06:48.725Z,21.22
2017-04-06T15:07:49.385Z,21.19
2017-04-06T15:08:50.043Z,21.29
2017-04-06T15:09:50.703Z,21.22
2017-04-06T15:10:51.362Z,21.25
2017-04-06T15:11:52.021Z,21.23
2017-04-06T15:12:52.683Z,21.22
2017-04-06T15:13:53.334Z,21.10
2017-04-06T15:14:53.992Z,21.19
2017-04-06T15:15:54.653Z,21.17
2017-04-06T15:16:55.310Z,21.19
2017-04-06T15:17:56.055Z,21.22
2017-04-06T15:18:56.724Z,21.13
2017-04-06T15:19:57.396Z,21.25
2017-04-06T15:20:58.047Z,21.23
2017-04-06T15:21:58.690Z,21.22
2017-04-06T15:22:59.498Z,21.10
2017-04-06T15:24:00.158Z,21.14
2017-04-06T15:25:00.815Z,21.14
2017-04-06T15:26:01.477Z,21.13
2017-04-06T15:27:02.132Z,21.13
2017-04-06T15:28:02.992Z,21.17
2017-04-06T15:29:03.665Z,21.15
2017-04-06T15:30:04.311Z,21.15
2017-04-06T15:31:04.971Z,21.13
2017-04-06T15:32:05.629Z,21.13
2017-04-06T15:33:06.288Z,21.10
2017-04-06T15:34:06.948Z,21.20
2017-04-06T15:35:07.607Z,21.14
2017-04-06T15:36:08.266Z,21.19
2017-04-06T15:37:08.925Z,21.23
2017-04-06T15:38:09.585Z,21.26
2017-04-06T15:39:10.243Z,21.26
2017-04-06T15:40:10.903Z,21.33
2017-04-06T15:41:11.568Z,21.35
2017-04-06T15:42:12.215Z,21.30
2017-04-06T15:43:12.875Z,21.30
2017-04-06T15:44:13.535Z,21.28
2017-04-06T15:45:14.187Z,21.26
2017-04-06T15:46:14.842Z,21.20
2017-04-06T15:47:15.503Z,21.26
2017-04-06T15:48:16.161Z,21.17
2017-04-06T15:49:16.820Z,21.19
2017-04-06T15:50:17.480Z,21.19
2017-04-06T15:51:18.135Z,21.17
2017-04-06T15:52:18.781Z,21.15
2017-04-06T15:53:19.441Z,21.14
2017-04-06T15:54:20.128Z,21.22
2017-04-06T15:55:20.847Z,21.08
2017-04-06T15:56:21.491Z,21.17
2017-04-06T15:57:22.145Z,21.17
2017-04-06T15:58:22.806Z,21.13
2017-04-06T15:59:23.462Z,21.14
2017-04-06T16:00:24.119Z,21.15
2017-04-06T16:01:24.794Z,21.13
2017-04-06T16:02:25.454Z,21.17
2017-04-06T16:03:26.112Z,21.03
2017-04-06T16:04:26.771Z,21.07
2017-04-06T16:05:27.439Z,21.20
2017-04-06T16:06:28.084Z,21.11
2017-04-06T16:07:28.745Z,21.17
2017-04-06T16:08:29.399Z,21.19
2017-04-06T16:09:30.058Z,21.22
2017-04-06T16:10:30.718Z,21.01
2017-04-06T16:11:31.378Z,21.15
2017-04-06T16:12:32.038Z,21.10
2017-04-06T16:13:32.698Z,21.01
2017-04-06T16:14:33.356Z,21.07
2017-04-06T16:15:34.013Z,21.03
2017-04-06T16:16:34.670Z,21.04
2017-04-06T16:17:35.333Z,21.03
2017-04-06T16:18:35.989Z,20.98
2017-04-06T16:19:36.649Z,21.07
2017-04-06T16:20:37.307Z,21.05
2017-04-06T16:21:37.970Z,21.05
2017-04-06T16:22:38.628Z,21.03
2017-04-06T16:23:39.288Z,21.05
2017-04-06T16:24:39.948Z,21.01
2017-04-06T16:25:40.608Z,21.07
2017-04-06T16:26:41.268Z,21.03
2017-04-06T16:27:41.928Z,20.92
2017-04-06T16:28:42.588Z,21.03
2017-04-06T16:29:43.248Z,20.95
2017-04-06T16:30:43.904Z,20.92
2017-04-06T16:31:44.553Z,20.90
2017-04-06T16:32:45.211Z,20.92
2017-04-06T16:33:45.871Z,20.85
2017-04-06T16:34:46.532Z,20.86
2017-04-06T16:35:47.188Z,20.93
2017-04-06T16:36:47.846Z,20.98
2017-04-06T16:37:48.507Z,20.89
2017-04-06T16:38:49.165Z,20.96
2017-04-06T16:39:49.825Z,20.96
2017-04-06T16:40:50.484Z,20.96
2017-04-06T16:41:51.142Z,20.93
2017-04-06T16:42:51.801Z,20.92
2017-04-06T16:43:52.460Z,20.89
2017-04-06T16:44:53.118Z,20.85
2017-04-06T16:45:53.778Z,20.88
2017-04-06T16:46:54.431Z,20.80
2017-04-06T16:47:55.084Z,20.85
2017-04-06T16:48:55.743Z,20.92
2017-04-06T16:49:56.404Z,20.86
2017-04-06T16:50:57.062Z,20.83
2017-04-06T16:51:57.724Z,20.82
2017-04-06T16:52:58.371Z,20.82
2017-04-06T16:53:59.031Z,20.92
2017-04-06T16:54:59.692Z,20.83
2017-04-06T16:56:00.351Z,20.85
2017-04-06T16:57:01.007Z,20.90
2017-04-06T16:58:01.668Z,20.90
2017-04-06T16:59:02.326Z,20.80
2017-04-06T17:00:02.986Z,20.82
2017-04-06T17:01:03.644Z,20.90
2017-04-06T17:02:04.301Z,20.83
2017-04-06T17:03:04.962Z,20.73
2017-04-06T17:04:05.620Z,20.83
2017-04-06T17:05:06.281Z,20.80
2017-04-06T17:06:06.939Z,20.88
2017-04-06T17:07:07.598Z,20.85
2017-04-06T17:08:08.256Z,20.73
2017-04-06T17:09:09.069Z,20.85
2017-04-06T17:10:09.719Z,20.78
2017-04-06T17:11:10.379Z,20.77
2017-04-06T17:12:11.037Z,20.80
2017-04-06T17:13:11.693Z,20.77
2017-04-06T17:14:12.351Z,20.75
2017-04-06T17:15:13.009Z,20.85
2017-04-06T17:16:13.667Z,20.77
2017-04-06T17:17:14.326Z,20.74
2017-04-06T17:18:14.984Z,20.74
2017-04-06T17:19:15.645Z,20.73
2017-04-06T17:20:16.295Z,20.78
2017-04-06T17:21:16.946Z,20.74
2017-04-06T17:22:17.595Z,20.75
2017-04-06T17:23:18.252Z,20.85
2017-04-06T17:24:18.910Z,20.77
2017-04-06T17:25:19.568Z,20.74
2017-04-06T17:26:20.230Z,20.77
2017-04-06T17:27:20.876Z,20.85
2017-04-06T17:28:21.534Z,20.83
2017-04-06T17:29:22.184Z,20.78
2017-04-06T17:30:22.840Z,20.80
2017-04-06T17:31:23.499Z,20.78
2017-04-06T17:32:24.147Z,20.75
2017-04-06T17:33:24.797Z,20.73
2017-04-06T17:34:25.460Z,20.73
2017-04-06T17:35:26.102Z,20.74
2017-04-06T17:36:26.760Z,20.71
2017-04-06T17:37:27.419Z,20.68
2017-04-06T17:38:28.075Z,20.74
2017-04-06T17:39:28.731Z,20.67
2017-04-06T17:40:29.378Z,20.74
2017-04-06T17:41:30.036Z,20.70
2017-04-06T17:42:30.694Z,20.66
2017-04-06T17:43:31.352Z,20.70
2017-04-06T17:44:32.003Z,20.67
2017-04-06T17:45:32.653Z,20.71
2017-04-06T17:46:33.310Z,20.73
2017-04-06T17:47:33.967Z,20.74
2017-04-06T17:48:34.625Z,20.75
2017-04-06T17:49:35.283Z,20.66
2017-04-06T17:50:35.942Z,20.68
2017-04-06T17:51:36.597Z,20.67
2017-04-06T17:52:37.255Z,20.68
2017-04-06T17:53:37.913Z,20.70
2017-04-06T17:54:38.569Z,20.64
2017-04-06T17:55:39.227Z,20.67
2017-04-06T17:56:39.881Z,20.73
2017-04-06T17:57:40.539Z,20.67
2017-04-06T17:58:41.196Z,20.64
2017-04-06T17:59:41.856Z,20.59
2017-04-06T18:00:42.514Z,20.70
2017-04-06T18:01:43.172Z,20.67
2017-04-06T18:02:43.828Z,20.63
2017-04-06T18:03:44.489Z,20.64
2017-04-06T18:04:45.135Z,20.66
2017-04-06T18:05:45.794Z,20.67
2017-04-06T18:06:46.450Z,20.68
2017-04-06T18:07:47.107Z,20.73
2017-04-06T18:08:47.765Z,20.70
2017-04-06T18:09:48.581Z,20.67
2017-04-06T18:10:49.224Z,20.66
2017-04-06T18:11:49.881Z,20.59
2017-04-06T18:12:50.537Z,20.63
2017-04-06T18:13:51.195Z,20.58
2017-04-06T18:14:51.852Z,20.58
2017-04-06T18:15:52.507Z,20.56
2017-04-06T18:16:53.171Z,20.49
2017-04-06T18:17:53.817Z,20.56
2017-04-06T18:18:54.475Z,20.59
2017-04-06T18:19:55.129Z,20.60
2017-04-06T18:20:55.788Z,20.53
2017-04-06T18:21:56.447Z,20.60
2017-04-06T18:22:57.105Z,20.52
2017-04-06T18:23:57.762Z,20.63
2017-04-06T18:24:58.420Z,20.55
2017-04-06T18:25:59.077Z,20.63
2017-04-06T18:26:59.735Z,20.58
2017-04-06T18:28:00.417Z,20.56
2017-04-06T18:29:01.301Z,20.60
2017-04-06T18:30:01.961Z,20.58
2017-04-06T18:31:02.615Z,20.58
2017-04-06T18:32:03.272Z,20.63
2017-04-06T18:33:03.931Z,20.56
2017-04-06T18:34:04.939Z,20.58
2017-04-06T18:35:05.596Z,20.56
2017-04-06T18:36:06.251Z,20.58
2017-04-06T18:37:06.908Z,20.53
2017-04-06T18:38:07.565Z,20.52
2017-04-06T18:39:08.221Z,20.56
2017-04-06T18:40:08.877Z,20.55
2017-04-06T18:41:09.532Z,20.48
2017-04-06T18:42:10.191Z,20.53
2017-04-06T18:43:10.847Z,20.53
2017-04-06T18:44:11.503Z,20.55
2017-04-06T18:45:12.161Z,20.59
2017-04-06T18:46:12.830Z,20.55
2017-04-06T18:47:13.486Z,20.52
2017-04-06T18:48:14.144Z,20.55
2017-04-06T18:49:14.800Z,20.49
2017-04-06T18:50:15.459Z,20.53
2017-04-06T18:51:16.116Z,20.58
2017-04-06T18:52:16.773Z,20.52
2017-04-06T18:53:17.432Z,20.48
2017-04-06T18:54:18.089Z,20.49
2017-04-06T18:55:18.947Z,20.49
2017-04-06T18:56:19.604Z,20.55
2017-04-06T18:57:20.264Z,20.52
2017-04-06T18:58:20.920Z,20.55
2017-04-06T18:59:21.577Z,20.53
2017-04-06T19:00:22.233Z,20.53
2017-04-06T19:01:22.888Z,20.48
2017-04-06T19:02:23.546Z,20.49
2017-04-06T19:03:24.206Z,20.46
2017-04-06T19:04:24.860Z,20.55
2017-04-06T19:05:25.517Z,20.55
2017-04-06T19:06:26.174Z,20.50
2017-04-06T19:07:26.831Z,20.42
2017-04-06T19:08:27.487Z,20.53
2017-04-06T19:09:28.145Z,20.58
2017-04-06T19:10:28.802Z,20.52
2017-04-06T19:11:29.459Z,20.55
2017-04-06T19:12:30.115Z,20.44
2017-04-06T19:13:30.771Z,20.49
2017-04-06T19:14:31.529Z,20.49
2017-04-06T19:15:32.183Z,20.42
2017-04-06T19:16:32.839Z,20.52
2017-04-06T19:17:33.498Z,20.49
2017-04-06T19:18:34.152Z,20.52
2017-04-06T19:19:34.808Z,20.58
2017-04-06T19:20:35.463Z,20.42
2017-04-06T19:21:36.120Z,20.42
2017-04-06T19:22:36.817Z,20.53
2017-04-06T19:23:37.468Z,20.53
2017-04-06T19:24:38.124Z,20.52
2017-04-06T19:25:38.773Z,20.49
2017-04-06T19:26:39.429Z,20.42
2017-04-06T19:27:40.084Z,20.46
2017-04-06T19:28:40.741Z,20.56
2017-04-06T19:29:41.397Z,20.55
2017-04-06T19:30:42.050Z,20.52
2017-04-06T19:31:42.702Z,20.44
2017-04-06T19:32:43.347Z,20.49
2017-04-06T19:33:44.006Z,20.48
2017-04-06T19:34:44.756Z,20.49
2017-04-06T19:35:45.412Z,20.48
2017-04-06T19:36:46.070Z,20.53
2017-04-06T19:37:46.726Z,20.44
2017-04-06T19:38:47.383Z,20.46
2017-04-06T19:39:48.046Z,20.44
2017-04-06T19:40:48.688Z,20.48
2017-04-06T19:41:49.343Z,20.55
2017-04-06T19:42:49.999Z,20.50
2017-04-06T19:43:50.657Z,20.49
2017-04-06T19:44:51.308Z,20.55
2017-04-06T19:45:51.963Z,20.48
2017-04-06T19:46:52.621Z,20.48
2017-04-06T19:47:53.266Z,20.48
2017-04-06T19:48:53.923Z,20.49
2017-04-06T19:49:54.582Z,20.40
2017-04-06T19:50:55.241Z,20.46
2017-04-06T19:51:55.891Z,20.56
2017-04-06T19:52:56.554Z,20.44
2017-04-06T19:53:57.197Z,20.50
2017-04-06T19:54:57.855Z,20.53
2017-04-06T19:55:58.508Z,20.44
2017-04-06T19:56:59.165Z,20.49
2017-04-06T19:57:59.823Z,20.39
2017-04-06T19:59:00.477Z,20.46
2017-04-06T20:00:01.137Z,20.55
2017-04-06T20:01:01.793Z,20.52
2017-04-06T20:02:02.450Z,20.52
2017-04-06T20:03:03.107Z,20.49
2017-04-06T20:04:03.763Z,20.44
2017-04-06T20:05:04.420Z,20.42
2017-04-06T20:06:05.077Z,20.40
2017-04-06T20:07:05.733Z,20.44
2017-04-06T20:08:06.389Z,20.36
2017-04-06T20:09:07.047Z,20.48
2017-04-06T20:10:07.707Z,20.36
2017-04-06T20:11:08.361Z,20.33
2017-04-06T20:12:09.031Z,20.42
2017-04-06T20:13:09.818Z,20.40
2017-04-06T20:14:10.479Z,20.44
2017-04-06T20:15:11.135Z,20.40
2017-04-06T20:16:11.791Z,20.37
2017-04-06T20:17:12.448Z,20.48
2017-04-06T20:18:13.106Z,20.36
2017-04-06T20:19:13.760Z,20.36
2017-04-06T20:20:14.417Z,20.33
2017-04-06T20:21:15.072Z,20.32
2017-04-06T20:32:02.115Z,20.48
2017-04-06T20:33:02.771Z,20.36
2017-04-06T20:34:03.428Z,20.52
2017-04-06T20:35:04.085Z,20.48
2017-04-06T20:36:07.847Z,20.49
2017-04-06T20:37:08.502Z,20.50
2017-04-06T20:38:09.159Z,20.50
2017-04-06T20:39:09.818Z,20.37
2017-04-06T20:40:10.477Z,20.42
2017-04-06T20:41:11.185Z,20.37
2017-04-06T20:42:11.842Z,20.48
2017-04-06T20:43:12.497Z,20.36
2017-04-06T20:44:13.155Z,20.37
2017-04-06T20:45:13.812Z,20.36
2017-04-06T20:46:14.468Z,20.40
2017-04-06T20:47:15.125Z,20.50
2017-04-06T20:48:15.781Z,20.37
2017-04-06T20:49:16.439Z,20.34
2017-04-06T20:50:17.097Z,20.39
2017-04-06T20:51:17.754Z,20.32
2017-04-06T20:52:18.402Z,20.49
2017-04-06T20:53:19.058Z,20.37
2017-04-06T20:54:19.716Z,20.34
2017-04-06T20:55:20.364Z,20.39
2017-04-06T20:56:21.021Z,20.37
2017-04-06T20:57:21.679Z,20.39
2017-04-06T20:58:22.325Z,20.39
2017-04-06T20:59:23.082Z,20.39
2017-04-06T21:00:23.738Z,20.39
2017-04-06T21:01:24.395Z,20.42
2017-04-06T21:02:25.051Z,20.39
2017-04-06T21:03:25.709Z,20.37
2017-04-06T21:04:26.367Z,20.32
2017-04-06T21:05:27.025Z,20.33
2017-04-06T21:06:27.680Z,20.33
2017-04-06T21:07:28.337Z,20.33
2017-04-06T21:08:28.994Z,20.39
2017-04-06T21:09:29.651Z,20.30
2017-04-06T21:10:30.308Z,20.33
2017-04-06T21:11:30.964Z,20.36
2017-04-06T21:12:31.622Z,20.52
2017-04-06T21:13:32.282Z,20.52
2017-04-06T21:14:32.926Z,20.44
2017-04-06T21:15:33.584Z,20.34
2017-04-06T21:16:34.240Z,20.46
2017-04-06T21:17:34.896Z,20.37
2017-04-06T21:18:35.553Z,20.36
2017-04-06T21:19:36.211Z,20.39
2017-04-06T21:20:36.864Z,20.40
2017-04-06T21:21:37.519Z,20.26
2017-04-06T21:22:38.175Z,20.48
2017-04-06T21:23:38.831Z,20.36
2017-04-06T21:24:39.488Z,20.39
2017-04-06T21:25:40.144Z,20.30
2017-04-06T21:26:40.802Z,20.40
2017-04-06T21:27:41.559Z,20.34
2017-04-06T21:28:42.218Z,20.39
2017-04-06T21:29:42.867Z,20.37
2017-04-06T21:30:43.523Z,20.46
2017-04-06T21:31:44.181Z,20.44
2017-04-06T21:32:44.838Z,20.34
2017-04-06T21:33:45.492Z,20.46
2017-04-06T21:34:46.151Z,20.34
2017-04-06T21:35:46.807Z,20.49
2017-04-06T21:36:47.462Z,20.37